sensor_id;sensor_type;location;lat;lon;timestamp;P1;durP1;ratioP1;P2;durP2;ratioP2
11034;SDS011;5571;48.110;-1.706;2023-05-28T00:02:24;19.60;;;7.50;;
11034;SDS011;5571;48.110;-1.706;2023-05-28T00:04:50;20.48;;;7.45;;
11034;SDS011;5571;48.110;-1.706;2023-05-28T00:07:16;20.25;;;7.43;;
11034;SDS011;5571;48.110;-1.706;2023-05-28T00:09:41;20.00;;;7.88;;
11034;SDS011;5571;48.110;-1.706;2023-05-28T00:12:07;22.77;;;10.18;;
11034;SDS011;5571;48.110;-1.706;2023-05-28T00:14:33;20.45;;;9.00;;
11034;SDS011;5571;48.110;-1.706;2023-05-28T00:16:59;20.33;;;7.75;;
11034;SDS011;5571;48.110;-1.706;2023-05-28T00:19:25;19.65;;;7.50;;
11034;SDS011;5571;48.110;-1.706;2023-05-28T00:21:51;19.48;;;6.90;;
11034;SDS011;5571;48.110;-1.706;2023-05-28T00:24:16;16.73;;;7.60;;
11034;SDS011;5571;48.110;-1.706;2023-05-28T00:26:42;17.20;;;7.45;;
11034;SDS011;5571;48.110;-1.706;2023-05-28T00:29:08;18.15;;;7.30;;
11034;SDS011;5571;48.110;-1.706;2023-05-28T00:31:33;18.35;;;7.53;;
11034;SDS011;5571;48.110;-1.706;2023-05-28T00:33:59;18.33;;;7.43;;
11034;SDS011;5571;48.110;-1.706;2023-05-28T00:36:26;22.05;;;7.85;;
11034;SDS011;5571;48.110;-1.706;2023-05-28T00:38:52;19.58;;;7.63;;
11034;SDS011;5571;48.110;-1.706;2023-05-28T00:41:21;20.30;;;7.20;;
11034;SDS011;5571;48.110;-1.706;2023-05-28T00:43:51;18.98;;;7.38;;
11034;SDS011;5571;48.110;-1.706;2023-05-28T00:46:17;21.50;;;7.82;;
11034;SDS011;5571;48.110;-1.706;2023-05-28T00:48:47;20.83;;;7.35;;
11034;SDS011;5571;48.110;-1.706;2023-05-28T00:51:13;21.90;;;7.55;;
11034;SDS011;5571;48.110;-1.706;2023-05-28T00:53:40;20.70;;;7.72;;
11034;SDS011;5571;48.110;-1.706;2023-05-28T00:56:07;24.73;;;7.63;;
11034;SDS011;5571;48.110;-1.706;2023-05-28T00:58:35;18.58;;;7.95;;
11034;SDS011;5571;48.110;-1.706;2023-05-28T01:01:04;21.63;;;8.05;;
11034;SDS011;5571;48.110;-1.706;2023-05-28T01:03:31;18.30;;;8.00;;
11034;SDS011;5571;48.110;-1.706;2023-05-28T01:05:57;22.98;;;7.82;;
11034;SDS011;5571;48.110;-1.706;2023-05-28T01:08:26;21.17;;;8.45;;
11034;SDS011;5571;48.110;-1.706;2023-05-28T01:10:52;20.73;;;8.50;;
11034;SDS011;5571;48.110;-1.706;2023-05-28T01:13:18;17.87;;;7.73;;
11034;SDS011;5571;48.110;-1.706;2023-05-28T01:15:44;25.40;;;8.35;;
11034;SDS011;5571;48.110;-1.706;2023-05-28T01:18:10;19.83;;;7.93;;
11034;SDS011;5571;48.110;-1.706;2023-05-28T01:20:36;22.10;;;7.97;;
11034;SDS011;5571;48.110;-1.706;2023-05-28T01:23:06;21.58;;;7.90;;
11034;SDS011;5571;48.110;-1.706;2023-05-28T01:25:32;22.80;;;8.03;;
11034;SDS011;5571;48.110;-1.706;2023-05-28T01:27:59;21.92;;;8.00;;
11034;SDS011;5571;48.110;-1.706;2023-05-28T01:30:27;22.07;;;7.70;;
11034;SDS011;5571;48.110;-1.706;2023-05-28T01:32:54;19.47;;;7.83;;
11034;SDS011;5571;48.110;-1.706;2023-05-28T01:35:19;21.10;;;7.53;;
11034;SDS011;5571;48.110;-1.706;2023-05-28T01:37:50;24.53;;;8.27;;
11034;SDS011;5571;48.110;-1.706;2023-05-28T01:40:18;21.13;;;7.80;;
11034;SDS011;5571;48.110;-1.706;2023-05-28T01:42:46;25.00;;;7.73;;
11034;SDS011;5571;48.110;-1.706;2023-05-28T01:45:14;24.83;;;8.33;;
11034;SDS011;5571;48.110;-1.706;2023-05-28T01:47:40;21.63;;;7.80;;
11034;SDS011;5571;48.110;-1.706;2023-05-28T01:50:07;20.60;;;7.93;;
11034;SDS011;5571;48.110;-1.706;2023-05-28T01:52:33;24.63;;;7.30;;
11034;SDS011;5571;48.110;-1.706;2023-05-28T01:54:59;27.87;;;8.23;;
11034;SDS011;5571;48.110;-1.706;2023-05-28T01:57:24;20.37;;;7.70;;
11034;SDS011;5571;48.110;-1.706;2023-05-28T01:59:50;19.97;;;7.53;;
11034;SDS011;5571;48.110;-1.706;2023-05-28T02:02:15;21.90;;;8.40;;
11034;SDS011;5571;48.110;-1.706;2023-05-28T02:04:41;24.33;;;8.53;;
11034;SDS011;5571;48.110;-1.706;2023-05-28T02:07:07;23.53;;;8.30;;
11034;SDS011;5571;48.110;-1.706;2023-05-28T02:09:32;17.40;;;7.00;;
11034;SDS011;5571;48.110;-1.706;2023-05-28T02:11:58;19.77;;;7.53;;
11034;SDS011;5571;48.110;-1.706;2023-05-28T02:14:27;20.73;;;8.07;;
11034;SDS011;5571;48.110;-1.706;2023-05-28T02:16:53;22.83;;;8.50;;
11034;SDS011;5571;48.110;-1.706;2023-05-28T02:19:19;19.23;;;7.63;;
11034;SDS011;5571;48.110;-1.706;2023-05-28T02:21:45;23.10;;;8.73;;
11034;SDS011;5571;48.110;-1.706;2023-05-28T02:24:11;23.80;;;8.37;;
11034;SDS011;5571;48.110;-1.706;2023-05-28T02:26:36;22.60;;;8.10;;
11034;SDS011;5571;48.110;-1.706;2023-05-28T02:29:02;17.93;;;8.20;;
11034;SDS011;5571;48.110;-1.706;2023-05-28T02:31:28;21.40;;;8.03;;
11034;SDS011;5571;48.110;-1.706;2023-05-28T02:33:53;20.20;;;7.53;;
11034;SDS011;5571;48.110;-1.706;2023-05-28T02:36:19;19.77;;;7.87;;
11034;SDS011;5571;48.110;-1.706;2023-05-28T02:38:45;19.77;;;7.60;;
11034;SDS011;5571;48.110;-1.706;2023-05-28T02:41:11;22.07;;;7.97;;
11034;SDS011;5571;48.110;-1.706;2023-05-28T02:43:37;22.03;;;7.70;;
11034;SDS011;5571;48.110;-1.706;2023-05-28T02:46:03;20.50;;;7.50;;
11034;SDS011;5571;48.110;-1.706;2023-05-28T02:48:28;19.13;;;7.90;;
11034;SDS011;5571;48.110;-1.706;2023-05-28T02:50:54;21.73;;;7.67;;
11034;SDS011;5571;48.110;-1.706;2023-05-28T02:53:20;22.13;;;8.30;;
11034;SDS011;5571;48.110;-1.706;2023-05-28T02:55:47;25.63;;;7.63;;
11034;SDS011;5571;48.110;-1.706;2023-05-28T02:58:13;22.63;;;8.20;;
11034;SDS011;5571;48.110;-1.706;2023-05-28T03:00:39;24.23;;;8.13;;
11034;SDS011;5571;48.110;-1.706;2023-05-28T03:03:05;27.13;;;8.07;;
11034;SDS011;5571;48.110;-1.706;2023-05-28T03:05:30;18.07;;;7.77;;
11034;SDS011;5571;48.110;-1.706;2023-05-28T03:07:57;21.20;;;7.57;;
11034;SDS011;5571;48.110;-1.706;2023-05-28T03:10:23;37.50;;;19.57;;
11034;SDS011;5571;48.110;-1.706;2023-05-28T03:12:49;26.97;;;12.17;;
11034;SDS011;5571;48.110;-1.706;2023-05-28T03:15:15;27.40;;;9.13;;
11034;SDS011;5571;48.110;-1.706;2023-05-28T03:17:40;26.73;;;9.83;;
11034;SDS011;5571;48.110;-1.706;2023-05-28T03:20:06;25.10;;;8.20;;
11034;SDS011;5571;48.110;-1.706;2023-05-28T03:22:38;24.30;;;8.60;;
11034;SDS011;5571;48.110;-1.706;2023-05-28T03:25:04;26.03;;;11.20;;
11034;SDS011;5571;48.110;-1.706;2023-05-28T03:27:31;30.27;;;11.67;;
11034;SDS011;5571;48.110;-1.706;2023-05-28T03:29:57;23.30;;;8.87;;
11034;SDS011;5571;48.110;-1.706;2023-05-28T03:32:23;23.87;;;8.20;;
11034;SDS011;5571;48.110;-1.706;2023-05-28T03:34:48;22.87;;;7.90;;
11034;SDS011;5571;48.110;-1.706;2023-05-28T03:37:14;24.37;;;8.27;;
11034;SDS011;5571;48.110;-1.706;2023-05-28T03:39:40;26.03;;;8.33;;
11034;SDS011;5571;48.110;-1.706;2023-05-28T03:42:06;21.70;;;7.90;;
11034;SDS011;5571;48.110;-1.706;2023-05-28T03:44:32;25.27;;;8.23;;
11034;SDS011;5571;48.110;-1.706;2023-05-28T03:46:58;22.77;;;7.80;;
11034;SDS011;5571;48.110;-1.706;2023-05-28T03:49:25;23.70;;;8.80;;
11034;SDS011;5571;48.110;-1.706;2023-05-28T03:51:50;26.77;;;8.63;;
11034;SDS011;5571;48.110;-1.706;2023-05-28T03:54:16;20.03;;;7.63;;
11034;SDS011;5571;48.110;-1.706;2023-05-28T03:56:41;19.17;;;7.30;;
11034;SDS011;5571;48.110;-1.706;2023-05-28T03:59:08;23.73;;;7.90;;
11034;SDS011;5571;48.110;-1.706;2023-05-28T04:01:33;24.30;;;8.77;;
11034;SDS011;5571;48.110;-1.706;2023-05-28T04:04:01;23.17;;;8.60;;
11034;SDS011;5571;48.110;-1.706;2023-05-28T04:06:26;23.50;;;7.90;;
11034;SDS011;5571;48.110;-1.706;2023-05-28T04:08:52;22.33;;;8.13;;
11034;SDS011;5571;48.110;-1.706;2023-05-28T04:11:18;24.83;;;8.30;;
11034;SDS011;5571;48.110;-1.706;2023-05-28T04:13:43;21.73;;;8.10;;
11034;SDS011;5571;48.110;-1.706;2023-05-28T04:16:09;23.43;;;7.73;;
11034;SDS011;5571;48.110;-1.706;2023-05-28T04:18:35;20.87;;;8.20;;
11034;SDS011;5571;48.110;-1.706;2023-05-28T04:21:00;22.47;;;8.20;;
11034;SDS011;5571;48.110;-1.706;2023-05-28T04:23:26;20.87;;;8.00;;
11034;SDS011;5571;48.110;-1.706;2023-05-28T04:25:52;22.47;;;7.90;;
11034;SDS011;5571;48.110;-1.706;2023-05-28T04:28:19;20.40;;;7.93;;
11034;SDS011;5571;48.110;-1.706;2023-05-28T04:30:44;21.20;;;7.60;;
11034;SDS011;5571;48.110;-1.706;2023-05-28T04:33:10;17.73;;;7.20;;
11034;SDS011;5571;48.110;-1.706;2023-05-28T04:35:36;20.40;;;8.00;;
11034;SDS011;5571;48.110;-1.706;2023-05-28T04:38:01;21.07;;;7.80;;
11034;SDS011;5571;48.110;-1.706;2023-05-28T04:40:27;21.13;;;7.47;;
11034;SDS011;5571;48.110;-1.706;2023-05-28T04:42:53;22.27;;;8.17;;
11034;SDS011;5571;48.110;-1.706;2023-05-28T04:45:20;15.73;;;7.37;;
11034;SDS011;5571;48.110;-1.706;2023-05-28T04:47:47;21.50;;;7.60;;
11034;SDS011;5571;48.110;-1.706;2023-05-28T04:50:13;23.00;;;7.70;;
11034;SDS011;5571;48.110;-1.706;2023-05-28T04:52:39;18.93;;;7.33;;
11034;SDS011;5571;48.110;-1.706;2023-05-28T04:55:04;25.43;;;8.00;;
11034;SDS011;5571;48.110;-1.706;2023-05-28T04:57:30;26.40;;;8.17;;
11034;SDS011;5571;48.110;-1.706;2023-05-28T04:59:57;24.57;;;8.53;;
11034;SDS011;5571;48.110;-1.706;2023-05-28T05:02:23;21.70;;;7.87;;
11034;SDS011;5571;48.110;-1.706;2023-05-28T05:04:49;21.03;;;7.33;;
11034;SDS011;5571;48.110;-1.706;2023-05-28T05:07:15;23.90;;;7.67;;
11034;SDS011;5571;48.110;-1.706;2023-05-28T05:09:41;28.43;;;7.87;;
11034;SDS011;5571;48.110;-1.706;2023-05-28T05:12:07;25.90;;;7.97;;
11034;SDS011;5571;48.110;-1.706;2023-05-28T05:14:34;21.80;;;7.40;;
11034;SDS011;5571;48.110;-1.706;2023-05-28T05:17:00;21.07;;;7.23;;
11034;SDS011;5571;48.110;-1.706;2023-05-28T05:19:27;26.43;;;8.37;;
11034;SDS011;5571;48.110;-1.706;2023-05-28T05:21:53;25.80;;;8.60;;
11034;SDS011;5571;48.110;-1.706;2023-05-28T05:24:18;22.73;;;7.57;;
11034;SDS011;5571;48.110;-1.706;2023-05-28T05:26:44;23.97;;;8.03;;
11034;SDS011;5571;48.110;-1.706;2023-05-28T05:29:10;17.70;;;6.93;;
11034;SDS011;5571;48.110;-1.706;2023-05-28T05:31:35;22.43;;;7.83;;
11034;SDS011;5571;48.110;-1.706;2023-05-28T05:34:01;20.47;;;7.87;;
11034;SDS011;5571;48.110;-1.706;2023-05-28T05:36:27;23.10;;;7.77;;
11034;SDS011;5571;48.110;-1.706;2023-05-28T05:38:52;17.40;;;7.40;;
11034;SDS011;5571;48.110;-1.706;2023-05-28T05:41:18;26.00;;;7.37;;
11034;SDS011;5571;48.110;-1.706;2023-05-28T05:43:43;24.00;;;8.17;;
11034;SDS011;5571;48.110;-1.706;2023-05-28T05:46:09;20.03;;;8.07;;
11034;SDS011;5571;48.110;-1.706;2023-05-28T05:48:35;22.87;;;7.67;;
11034;SDS011;5571;48.110;-1.706;2023-05-28T05:51:01;18.87;;;7.67;;
11034;SDS011;5571;48.110;-1.706;2023-05-28T05:53:27;21.37;;;8.33;;
11034;SDS011;5571;48.110;-1.706;2023-05-28T05:55:53;20.73;;;8.00;;
11034;SDS011;5571;48.110;-1.706;2023-05-28T05:58:19;23.93;;;8.20;;
11034;SDS011;5571;48.110;-1.706;2023-05-28T06:00:46;20.70;;;7.70;;
11034;SDS011;5571;48.110;-1.706;2023-05-28T06:03:13;24.20;;;8.57;;
11034;SDS011;5571;48.110;-1.706;2023-05-28T06:05:39;21.90;;;7.90;;
11034;SDS011;5571;48.110;-1.706;2023-05-28T06:08:04;30.30;;;7.83;;
11034;SDS011;5571;48.110;-1.706;2023-05-28T06:10:30;30.70;;;8.33;;
11034;SDS011;5571;48.110;-1.706;2023-05-28T06:12:56;22.07;;;8.10;;
11034;SDS011;5571;48.110;-1.706;2023-05-28T06:15:21;24.63;;;7.70;;
11034;SDS011;5571;48.110;-1.706;2023-05-28T06:17:47;23.17;;;8.07;;
11034;SDS011;5571;48.110;-1.706;2023-05-28T06:20:13;23.60;;;8.27;;
11034;SDS011;5571;48.110;-1.706;2023-05-28T06:22:40;22.33;;;7.80;;
11034;SDS011;5571;48.110;-1.706;2023-05-28T06:25:06;25.53;;;7.77;;
11034;SDS011;5571;48.110;-1.706;2023-05-28T06:27:32;18.03;;;7.70;;
11034;SDS011;5571;48.110;-1.706;2023-05-28T06:30:00;23.13;;;7.90;;
11034;SDS011;5571;48.110;-1.706;2023-05-28T06:32:26;25.80;;;8.10;;
11034;SDS011;5571;48.110;-1.706;2023-05-28T06:34:52;26.43;;;8.43;;
11034;SDS011;5571;48.110;-1.706;2023-05-28T06:37:17;24.73;;;7.90;;
11034;SDS011;5571;48.110;-1.706;2023-05-28T06:39:43;20.30;;;7.72;;
11034;SDS011;5571;48.110;-1.706;2023-05-28T06:42:08;22.95;;;7.75;;
11034;SDS011;5571;48.110;-1.706;2023-05-28T06:44:34;18.20;;;7.53;;
11034;SDS011;5571;48.110;-1.706;2023-05-28T06:47:00;21.23;;;7.97;;
11034;SDS011;5571;48.110;-1.706;2023-05-28T06:49:26;24.25;;;8.43;;
11034;SDS011;5571;48.110;-1.706;2023-05-28T06:51:52;21.58;;;8.30;;
11034;SDS011;5571;48.110;-1.706;2023-05-28T06:54:17;25.60;;;7.68;;
11034;SDS011;5571;48.110;-1.706;2023-05-28T06:56:43;22.50;;;7.97;;
11034;SDS011;5571;48.110;-1.706;2023-05-28T06:59:08;24.00;;;7.78;;
11034;SDS011;5571;48.110;-1.706;2023-05-28T07:01:35;23.15;;;8.10;;
11034;SDS011;5571;48.110;-1.706;2023-05-28T07:04:01;22.52;;;7.95;;
11034;SDS011;5571;48.110;-1.706;2023-05-28T07:06:26;21.15;;;7.93;;
11034;SDS011;5571;48.110;-1.706;2023-05-28T07:08:52;24.95;;;8.10;;
11034;SDS011;5571;48.110;-1.706;2023-05-28T07:11:18;28.48;;;7.97;;
11034;SDS011;5571;48.110;-1.706;2023-05-28T07:13:43;19.85;;;7.97;;
11034;SDS011;5571;48.110;-1.706;2023-05-28T07:16:09;20.50;;;8.65;;
11034;SDS011;5571;48.110;-1.706;2023-05-28T07:18:35;22.58;;;8.75;;
11034;SDS011;5571;48.110;-1.706;2023-05-28T07:21:01;20.38;;;8.02;;
11034;SDS011;5571;48.110;-1.706;2023-05-28T07:23:27;21.17;;;8.15;;
11034;SDS011;5571;48.110;-1.706;2023-05-28T07:25:53;25.48;;;8.30;;
11034;SDS011;5571;48.110;-1.706;2023-05-28T07:28:19;18.80;;;7.85;;
11034;SDS011;5571;48.110;-1.706;2023-05-28T07:30:44;26.05;;;7.75;;
11034;SDS011;5571;48.110;-1.706;2023-05-28T07:33:10;21.65;;;7.95;;
11034;SDS011;5571;48.110;-1.706;2023-05-28T07:35:36;21.20;;;7.85;;
11034;SDS011;5571;48.110;-1.706;2023-05-28T07:38:03;19.58;;;8.07;;
11034;SDS011;5571;48.110;-1.706;2023-05-28T07:40:28;23.75;;;7.75;;
11034;SDS011;5571;48.110;-1.706;2023-05-28T07:42:54;20.45;;;7.88;;
11034;SDS011;5571;48.110;-1.706;2023-05-28T07:45:20;22.30;;;8.05;;
11034;SDS011;5571;48.110;-1.706;2023-05-28T07:47:45;19.92;;;7.68;;
11034;SDS011;5571;48.110;-1.706;2023-05-28T07:50:11;21.13;;;8.23;;
11034;SDS011;5571;48.110;-1.706;2023-05-28T07:52:37;25.75;;;8.27;;
11034;SDS011;5571;48.110;-1.706;2023-05-28T07:55:05;23.25;;;7.85;;
11034;SDS011;5571;48.110;-1.706;2023-05-28T07:57:32;19.55;;;7.95;;
11034;SDS011;5571;48.110;-1.706;2023-05-28T07:59:59;17.48;;;7.22;;
11034;SDS011;5571;48.110;-1.706;2023-05-28T08:02:25;20.90;;;7.80;;
11034;SDS011;5571;48.110;-1.706;2023-05-28T08:04:51;22.33;;;8.18;;
11034;SDS011;5571;48.110;-1.706;2023-05-28T08:07:18;17.90;;;8.38;;
11034;SDS011;5571;48.110;-1.706;2023-05-28T08:09:44;26.75;;;8.55;;
11034;SDS011;5571;48.110;-1.706;2023-05-28T08:12:10;19.73;;;7.53;;
11034;SDS011;5571;48.110;-1.706;2023-05-28T08:14:35;16.15;;;7.28;;
11034;SDS011;5571;48.110;-1.706;2023-05-28T08:17:01;21.95;;;8.15;;
11034;SDS011;5571;48.110;-1.706;2023-05-28T08:19:27;21.27;;;7.63;;
11034;SDS011;5571;48.110;-1.706;2023-05-28T08:21:52;19.50;;;7.80;;
11034;SDS011;5571;48.110;-1.706;2023-05-28T08:24:18;25.08;;;8.13;;
11034;SDS011;5571;48.110;-1.706;2023-05-28T08:26:45;17.60;;;7.43;;
11034;SDS011;5571;48.110;-1.706;2023-05-28T08:29:11;19.65;;;8.23;;
11034;SDS011;5571;48.110;-1.706;2023-05-28T08:31:36;22.50;;;7.55;;
11034;SDS011;5571;48.110;-1.706;2023-05-28T08:34:02;16.27;;;6.60;;
11034;SDS011;5571;48.110;-1.706;2023-05-28T08:36:27;19.23;;;6.97;;
11034;SDS011;5571;48.110;-1.706;2023-05-28T08:38:55;19.35;;;7.40;;
11034;SDS011;5571;48.110;-1.706;2023-05-28T08:41:20;14.77;;;6.65;;
11034;SDS011;5571;48.110;-1.706;2023-05-28T08:43:47;15.27;;;7.47;;
11034;SDS011;5571;48.110;-1.706;2023-05-28T08:46:13;17.35;;;7.68;;
11034;SDS011;5571;48.110;-1.706;2023-05-28T08:48:40;17.40;;;7.22;;
11034;SDS011;5571;48.110;-1.706;2023-05-28T08:51:06;19.20;;;7.80;;
11034;SDS011;5571;48.110;-1.706;2023-05-28T08:53:36;18.42;;;7.40;;
11034;SDS011;5571;48.110;-1.706;2023-05-28T08:56:11;14.70;;;7.00;;
11034;SDS011;5571;48.110;-1.706;2023-05-28T08:58:38;16.23;;;7.43;;
11034;SDS011;5571;48.110;-1.706;2023-05-28T09:01:06;16.95;;;6.63;;
11034;SDS011;5571;48.110;-1.706;2023-05-28T09:03:33;18.50;;;6.70;;
11034;SDS011;5571;48.110;-1.706;2023-05-28T09:06:00;17.92;;;6.72;;
11034;SDS011;5571;48.110;-1.706;2023-05-28T09:08:27;16.80;;;6.97;;
11034;SDS011;5571;48.110;-1.706;2023-05-28T09:10:55;17.42;;;7.22;;
11034;SDS011;5571;48.110;-1.706;2023-05-28T09:13:21;18.20;;;7.13;;
11034;SDS011;5571;48.110;-1.706;2023-05-28T09:15:51;16.77;;;7.25;;
11034;SDS011;5571;48.110;-1.706;2023-05-28T09:18:20;18.15;;;7.50;;
11034;SDS011;5571;48.110;-1.706;2023-05-28T09:20:49;18.08;;;7.22;;
11034;SDS011;5571;48.110;-1.706;2023-05-28T09:23:16;16.52;;;6.90;;
11034;SDS011;5571;48.110;-1.706;2023-05-28T09:25:43;16.00;;;6.93;;
11034;SDS011;5571;48.110;-1.706;2023-05-28T09:28:10;16.20;;;7.05;;
11034;SDS011;5571;48.110;-1.706;2023-05-28T09:30:38;18.63;;;6.82;;
11034;SDS011;5571;48.110;-1.706;2023-05-28T09:33:05;15.95;;;7.40;;
11034;SDS011;5571;48.110;-1.706;2023-05-28T09:35:32;18.55;;;8.23;;
11034;SDS011;5571;48.110;-1.706;2023-05-28T09:38:05;14.57;;;7.20;;
11034;SDS011;5571;48.110;-1.706;2023-05-28T09:40:42;14.98;;;6.72;;
11034;SDS011;5571;48.110;-1.706;2023-05-28T09:43:11;19.38;;;6.80;;
11034;SDS011;5571;48.110;-1.706;2023-05-28T09:45:37;15.45;;;6.35;;
11034;SDS011;5571;48.110;-1.706;2023-05-28T09:48:03;16.48;;;7.15;;
11034;SDS011;5571;48.110;-1.706;2023-05-28T09:50:29;14.80;;;6.78;;
11034;SDS011;5571;48.110;-1.706;2023-05-28T09:52:56;13.27;;;6.38;;
11034;SDS011;5571;48.110;-1.706;2023-05-28T09:55:27;16.50;;;6.75;;
11034;SDS011;5571;48.110;-1.706;2023-05-28T09:58:03;19.25;;;7.15;;
11034;SDS011;5571;48.110;-1.706;2023-05-28T10:05:56;14.15;;;7.50;;
11034;SDS011;5571;48.110;-1.706;2023-05-28T10:08:28;10.15;;;6.75;;
11034;SDS011;5571;48.110;-1.706;2023-05-28T10:10:57;13.95;;;6.63;;
11034;SDS011;5571;48.110;-1.706;2023-05-28T10:13:22;15.98;;;6.78;;
11034;SDS011;5571;48.110;-1.706;2023-05-28T10:15:48;12.05;;;6.60;;
11034;SDS011;5571;48.110;-1.706;2023-05-28T10:18:15;10.35;;;6.00;;
11034;SDS011;5571;48.110;-1.706;2023-05-28T10:20:42;14.60;;;6.88;;
11034;SDS011;5571;48.110;-1.706;2023-05-28T10:23:08;18.10;;;7.05;;
11034;SDS011;5571;48.110;-1.706;2023-05-28T10:25:35;13.43;;;6.00;;
11034;SDS011;5571;48.110;-1.706;2023-05-28T10:28:01;14.57;;;6.13;;
11034;SDS011;5571;48.110;-1.706;2023-05-28T10:30:45;12.20;;;6.07;;
11034;SDS011;5571;48.110;-1.706;2023-05-28T10:33:11;10.85;;;5.38;;
11034;SDS011;5571;48.110;-1.706;2023-05-28T10:35:53;12.23;;;6.05;;
11034;SDS011;5571;48.110;-1.706;2023-05-28T10:38:22;13.40;;;5.85;;
11034;SDS011;5571;48.110;-1.706;2023-05-28T10:40:48;13.23;;;5.57;;
11034;SDS011;5571;48.110;-1.706;2023-05-28T10:46:09;11.77;;;5.35;;
11034;SDS011;5571;48.110;-1.706;2023-05-28T10:48:41;14.68;;;5.30;;
11034;SDS011;5571;48.110;-1.706;2023-05-28T10:51:42;13.45;;;5.63;;
11034;SDS011;5571;48.110;-1.706;2023-05-28T10:54:22;13.13;;;5.55;;
11034;SDS011;5571;48.110;-1.706;2023-05-28T10:59:51;12.60;;;5.22;;
11034;SDS011;5571;48.110;-1.706;2023-05-28T11:02:23;12.25;;;5.57;;
11034;SDS011;5571;48.110;-1.706;2023-05-28T11:04:54;12.57;;;5.63;;
11034;SDS011;5571;48.110;-1.706;2023-05-28T11:07:21;15.07;;;5.80;;
11034;SDS011;5571;48.110;-1.706;2023-05-28T11:09:52;14.10;;;5.55;;
11034;SDS011;5571;48.110;-1.706;2023-05-28T11:12:21;12.45;;;5.60;;
11034;SDS011;5571;48.110;-1.706;2023-05-28T11:14:47;15.02;;;5.88;;
11034;SDS011;5571;48.110;-1.706;2023-05-28T11:17:13;13.20;;;5.85;;
11034;SDS011;5571;48.110;-1.706;2023-05-28T11:19:46;14.85;;;5.00;;
11034;SDS011;5571;48.110;-1.706;2023-05-28T11:22:15;11.85;;;4.80;;
11034;SDS011;5571;48.110;-1.706;2023-05-28T11:24:58;11.73;;;4.82;;
11034;SDS011;5571;48.110;-1.706;2023-05-28T11:27:30;13.98;;;5.10;;
11034;SDS011;5571;48.110;-1.706;2023-05-28T11:29:57;14.35;;;5.38;;
11034;SDS011;5571;48.110;-1.706;2023-05-28T11:32:25;10.43;;;4.88;;
11034;SDS011;5571;48.110;-1.706;2023-05-28T11:34:52;10.45;;;5.47;;
11034;SDS011;5571;48.110;-1.706;2023-05-28T11:37:22;11.18;;;5.00;;
11034;SDS011;5571;48.110;-1.706;2023-05-28T11:39:51;14.45;;;5.45;;
11034;SDS011;5571;48.110;-1.706;2023-05-28T11:42:18;15.68;;;5.10;;
11034;SDS011;5571;48.110;-1.706;2023-05-28T11:44:45;10.57;;;5.00;;
11034;SDS011;5571;48.110;-1.706;2023-05-28T11:47:11;14.23;;;4.90;;
11034;SDS011;5571;48.110;-1.706;2023-05-28T11:49:38;12.57;;;4.93;;
11034;SDS011;5571;48.110;-1.706;2023-05-28T11:52:04;17.40;;;5.65;;
11034;SDS011;5571;48.110;-1.706;2023-05-28T11:54:29;14.13;;;5.05;;
11034;SDS011;5571;48.110;-1.706;2023-05-28T11:56:55;10.80;;;5.40;;
11034;SDS011;5571;48.110;-1.706;2023-05-28T11:59:21;12.45;;;5.07;;
11034;SDS011;5571;48.110;-1.706;2023-05-28T12:01:51;9.43;;;5.00;;
11034;SDS011;5571;48.110;-1.706;2023-05-28T12:04:33;11.13;;;5.25;;
11034;SDS011;5571;48.110;-1.706;2023-05-28T12:06:59;14.00;;;5.07;;
11034;SDS011;5571;48.110;-1.706;2023-05-28T12:09:25;13.25;;;5.38;;
11034;SDS011;5571;48.110;-1.706;2023-05-28T12:12:00;13.70;;;5.13;;
11034;SDS011;5571;48.110;-1.706;2023-05-28T12:14:36;15.18;;;5.25;;
11034;SDS011;5571;48.110;-1.706;2023-05-28T12:17:08;13.82;;;5.15;;
11034;SDS011;5571;48.110;-1.706;2023-05-28T12:19:35;13.25;;;5.43;;
11034;SDS011;5571;48.110;-1.706;2023-05-28T12:22:04;10.82;;;4.50;;
11034;SDS011;5571;48.110;-1.706;2023-05-28T12:24:37;11.07;;;5.38;;
11034;SDS011;5571;48.110;-1.706;2023-05-28T12:27:03;10.48;;;5.30;;
11034;SDS011;5571;48.110;-1.706;2023-05-28T12:29:28;12.10;;;5.50;;
11034;SDS011;5571;48.110;-1.706;2023-05-28T12:31:58;8.98;;;5.05;;
11034;SDS011;5571;48.110;-1.706;2023-05-28T12:34:24;9.30;;;4.85;;
11034;SDS011;5571;48.110;-1.706;2023-05-28T12:36:50;12.90;;;5.25;;
11034;SDS011;5571;48.110;-1.706;2023-05-28T12:39:15;13.70;;;5.25;;
11034;SDS011;5571;48.110;-1.706;2023-05-28T12:41:41;9.07;;;4.82;;
11034;SDS011;5571;48.110;-1.706;2023-05-28T12:44:07;11.68;;;5.25;;
11034;SDS011;5571;48.110;-1.706;2023-05-28T12:46:32;11.50;;;5.40;;
11034;SDS011;5571;48.110;-1.706;2023-05-28T12:48:58;14.32;;;5.40;;
11034;SDS011;5571;48.110;-1.706;2023-05-28T12:51:24;9.05;;;5.80;;
11034;SDS011;5571;48.110;-1.706;2023-05-28T12:53:49;9.00;;;5.20;;
11034;SDS011;5571;48.110;-1.706;2023-05-28T12:56:15;11.35;;;5.22;;
11034;SDS011;5571;48.110;-1.706;2023-05-28T12:58:43;8.63;;;5.05;;
11034;SDS011;5571;48.110;-1.706;2023-05-28T13:01:08;11.57;;;5.53;;
11034;SDS011;5571;48.110;-1.706;2023-05-28T13:03:34;11.82;;;5.13;;
11034;SDS011;5571;48.110;-1.706;2023-05-28T13:05:59;10.63;;;5.00;;
11034;SDS011;5571;48.110;-1.706;2023-05-28T13:08:25;10.55;;;5.20;;
11034;SDS011;5571;48.110;-1.706;2023-05-28T13:10:51;9.43;;;4.85;;
11034;SDS011;5571;48.110;-1.706;2023-05-28T13:13:16;13.32;;;5.95;;
11034;SDS011;5571;48.110;-1.706;2023-05-28T13:15:42;14.35;;;5.53;;
11034;SDS011;5571;48.110;-1.706;2023-05-28T13:18:09;11.23;;;5.40;;
11034;SDS011;5571;48.110;-1.706;2023-05-28T13:20:35;11.02;;;5.20;;
11034;SDS011;5571;48.110;-1.706;2023-05-28T13:23:01;8.70;;;4.78;;
11034;SDS011;5571;48.110;-1.706;2023-05-28T13:25:27;10.80;;;5.43;;
11034;SDS011;5571;48.110;-1.706;2023-05-28T13:27:53;11.98;;;5.30;;
11034;SDS011;5571;48.110;-1.706;2023-05-28T13:30:18;10.07;;;5.03;;
11034;SDS011;5571;48.110;-1.706;2023-05-28T13:32:44;9.73;;;4.95;;
11034;SDS011;5571;48.110;-1.706;2023-05-28T13:35:10;10.15;;;5.03;;
11034;SDS011;5571;48.110;-1.706;2023-05-28T13:37:36;11.20;;;4.88;;
11034;SDS011;5571;48.110;-1.706;2023-05-28T13:40:03;10.02;;;5.10;;
11034;SDS011;5571;48.110;-1.706;2023-05-28T13:42:35;11.63;;;5.07;;
11034;SDS011;5571;48.110;-1.706;2023-05-28T13:45:01;9.32;;;5.00;;
11034;SDS011;5571;48.110;-1.706;2023-05-28T13:47:28;8.57;;;5.00;;
11034;SDS011;5571;48.110;-1.706;2023-05-28T13:49:54;16.20;;;5.57;;
11034;SDS011;5571;48.110;-1.706;2023-05-28T13:52:20;9.48;;;5.00;;
11034;SDS011;5571;48.110;-1.706;2023-05-28T13:54:45;8.23;;;4.88;;
11034;SDS011;5571;48.110;-1.706;2023-05-28T13:57:11;13.95;;;5.15;;
11034;SDS011;5571;48.110;-1.706;2023-05-28T13:59:37;9.35;;;4.85;;
11034;SDS011;5571;48.110;-1.706;2023-05-28T14:02:03;12.73;;;5.18;;
11034;SDS011;5571;48.110;-1.706;2023-05-28T14:04:28;7.90;;;4.68;;
11034;SDS011;5571;48.110;-1.706;2023-05-28T14:06:54;12.98;;;5.57;;
11034;SDS011;5571;48.110;-1.706;2023-05-28T14:09:20;10.82;;;4.93;;
11034;SDS011;5571;48.110;-1.706;2023-05-28T14:11:45;9.55;;;5.07;;
11034;SDS011;5571;48.110;-1.706;2023-05-28T14:14:11;12.15;;;5.00;;
11034;SDS011;5571;48.110;-1.706;2023-05-28T14:16:38;9.90;;;4.95;;
11034;SDS011;5571;48.110;-1.706;2023-05-28T14:19:04;11.20;;;5.32;;
11034;SDS011;5571;48.110;-1.706;2023-05-28T14:21:29;8.85;;;4.80;;
11034;SDS011;5571;48.110;-1.706;2023-05-28T14:23:55;8.57;;;4.93;;
11034;SDS011;5571;48.110;-1.706;2023-05-28T14:26:20;10.63;;;4.70;;
11034;SDS011;5571;48.110;-1.706;2023-05-28T14:28:46;9.57;;;5.05;;
11034;SDS011;5571;48.110;-1.706;2023-05-28T14:31:11;10.75;;;5.00;;
11034;SDS011;5571;48.110;-1.706;2023-05-28T14:33:37;10.32;;;4.43;;
11034;SDS011;5571;48.110;-1.706;2023-05-28T14:36:03;9.88;;;4.43;;
11034;SDS011;5571;48.110;-1.706;2023-05-28T14:38:29;8.32;;;4.88;;
11034;SDS011;5571;48.110;-1.706;2023-05-28T14:40:54;9.90;;;4.82;;
11034;SDS011;5571;48.110;-1.706;2023-05-28T14:43:20;10.95;;;5.18;;
11034;SDS011;5571;48.110;-1.706;2023-05-28T14:45:45;9.45;;;4.57;;